createdAt,value
2022-10-06T00:01:14.286Z,21.07
2022-10-06T00:03:42.849Z,21.03
2022-10-06T00:06:14.212Z,21.04
2022-10-06T00:08:46.395Z,20.99
2022-10-06T00:11:15.929Z,20.95
2022-10-06T00:13:43.796Z,20.80
2022-10-06T00:16:22.791Z,20.72
2022-10-06T00:18:51.260Z,20.77
2022-10-06T00:21:19.035Z,20.57
2022-10-06T00:23:46.735Z,20.60
2022-10-06T00:26:17.579Z,20.57
2022-10-06T00:28:48.697Z,20.55
2022-10-06T00:31:19.959Z,20.50
2022-10-06T00:33:49.772Z,20.52
2022-10-06T00:36:17.506Z,20.51
2022-10-06T00:38:45.805Z,20.35
2022-10-06T00:41:16.717Z,20.34
2022-10-06T00:43:54.705Z,20.34
2022-10-06T00:46:23.288Z,20.33
2022-10-06T00:48:56.911Z,20.33
2022-10-06T00:51:24.591Z,20.30
2022-10-06T00:53:52.542Z,20.23
2022-10-06T00:56:20.602Z,20.25
2022-10-06T00:58:51.134Z,20.29
2022-10-06T01:01:26.098Z,20.21
2022-10-06T01:04:01.390Z,20.18
2022-10-06T01:06:28.848Z,20.28
2022-10-06T01:08:56.414Z,20.24
2022-10-06T01:11:24.110Z,20.25
2022-10-06T01:13:51.834Z,20.29
2022-10-06T01:16:24.661Z,20.40
2022-10-06T01:18:56.101Z,20.33
2022-10-06T01:21:34.836Z,20.38
2022-10-06T01:24:06.045Z,20.35
2022-10-06T01:26:36.905Z,20.36
2022-10-06T01:29:04.681Z,20.40
2022-10-06T01:31:32.129Z,20.41
2022-10-06T01:34:00.580Z,20.45
2022-10-06T01:36:28.762Z,20.44
2022-10-06T01:38:56.628Z,20.41
2022-10-06T01:41:25.720Z,20.36
2022-10-06T01:43:56.454Z,20.31
2022-10-06T01:46:25.186Z,20.25
2022-10-06T01:48:52.904Z,20.24
2022-10-06T01:51:20.472Z,20.22
2022-10-06T01:53:47.842Z,20.22
2022-10-06T01:56:15.402Z,20.25
2022-10-06T01:58:43.285Z,20.21
2022-10-06T02:01:18.874Z,20.16
2022-10-06T02:03:46.366Z,20.08
2022-10-06T02:06:13.770Z,20.17
2022-10-06T02:08:43.613Z,20.14
2022-10-06T02:11:12.638Z,20.02
2022-10-06T02:13:44.012Z,20.04
2022-10-06T02:16:14.025Z,20.11
2022-10-06T02:18:43.545Z,20.13
2022-10-06T02:21:22.864Z,20.03
2022-10-06T02:23:50.887Z,20.02
2022-10-06T02:26:23.971Z,19.97
2022-10-06T02:29:00.978Z,20.05
2022-10-06T02:31:29.897Z,19.98
2022-10-06T02:34:00.717Z,19.95
2022-10-06T02:36:28.173Z,19.98
2022-10-06T02:38:57.656Z,19.86
2022-10-06T02:41:31.462Z,19.85
2022-10-06T02:44:01.463Z,19.91
2022-10-06T02:46:29.200Z,19.93
2022-10-06T02:48:58.250Z,19.90
2022-10-06T02:51:26.341Z,19.88
2022-10-06T02:54:04.002Z,19.92
2022-10-06T02:56:35.270Z,19.93
2022-10-06T02:59:02.749Z,19.85
2022-10-06T03:01:34.187Z,19.88
2022-10-06T03:04:09.100Z,19.78
2022-10-06T03:06:37.442Z,19.86
2022-10-06T03:09:22.830Z,19.84
2022-10-06T03:11:51.657Z,19.84
2022-10-06T03:14:27.579Z,19.86
2022-10-06T03:16:57.287Z,19.66
2022-10-06T03:19:27.411Z,19.77
2022-10-06T03:21:55.624Z,19.86
2022-10-06T03:24:32.050Z,19.80
2022-10-06T03:27:00.418Z,19.87
2022-10-06T03:29:28.608Z,19.85
2022-10-06T03:31:59.024Z,19.80
2022-10-06T03:34:27.457Z,19.78
2022-10-06T03:36:57.264Z,19.65
2022-10-06T03:39:27.143Z,19.74
2022-10-06T03:41:54.772Z,19.71
2022-10-06T03:44:23.394Z,19.70
2022-10-06T03:46:51.667Z,19.74
2022-10-06T03:49:20.158Z,19.71
2022-10-06T03:51:47.907Z,19.72
2022-10-06T03:54:29.139Z,19.69
2022-10-06T03:56:57.477Z,19.69
2022-10-06T03:59:25.815Z,19.67
2022-10-06T04:01:53.813Z,19.67
2022-10-06T04:04:28.744Z,19.55
2022-10-06T04:07:02.013Z,19.56
2022-10-06T04:09:30.410Z,19.57
2022-10-06T04:11:58.439Z,19.56
2022-10-06T04:14:27.331Z,19.52
2022-10-06T04:16:57.670Z,19.55
2022-10-06T04:19:37.650Z,19.53
2022-10-06T04:22:05.551Z,19.54
2022-10-06T04:24:34.576Z,19.44
2022-10-06T04:27:21.934Z,19.51
2022-10-06T04:30:02.282Z,19.51
2022-10-06T04:32:31.941Z,19.55
2022-10-06T04:34:59.971Z,19.50
2022-10-06T04:37:29.483Z,19.54
2022-10-06T04:39:58.262Z,19.55
2022-10-06T04:42:30.241Z,19.52
2022-10-06T04:45:01.241Z,19.52
2022-10-06T04:47:29.035Z,19.55
2022-10-06T04:49:57.840Z,19.47
2022-10-06T04:52:26.701Z,19.39
2022-10-06T04:54:54.759Z,19.48
2022-10-06T04:57:23.290Z,19.43
2022-10-06T05:00:14.724Z,19.44
2022-10-06T05:02:45.763Z,19.48
2022-10-06T05:05:14.305Z,19.42
2022-10-06T05:07:45.633Z,19.37
2022-10-06T05:10:13.984Z,19.46
2022-10-06T05:12:41.865Z,19.43
2022-10-06T05:15:11.064Z,19.38
2022-10-06T05:17:38.716Z,19.38
2022-10-06T05:20:08.581Z,19.37
2022-10-06T05:22:37.178Z,19.35
2022-10-06T05:25:05.467Z,19.36
2022-10-06T05:27:32.886Z,19.35
2022-10-06T05:30:00.499Z,19.28
2022-10-06T05:32:31.422Z,19.29
2022-10-06T05:35:01.298Z,19.26
2022-10-06T05:37:29.048Z,19.20
2022-10-06T05:39:57.326Z,19.18
2022-10-06T05:42:29.474Z,19.19
2022-10-06T05:44:59.049Z,19.23
2022-10-06T05:47:27.223Z,19.18
2022-10-06T05:49:55.437Z,19.20
2022-10-06T05:52:23.184Z,19.19
2022-10-06T05:54:51.334Z,19.22
2022-10-06T05:57:23.245Z,19.23
2022-10-06T05:59:51.420Z,19.26
2022-10-06T06:02:19.219Z,19.26
2022-10-06T06:04:47.563Z,19.33
2022-10-06T06:07:15.615Z,19.35
2022-10-06T06:10:16.949Z,19.37
2022-10-06T06:12:44.711Z,19.39
2022-10-06T06:15:50.411Z,19.44
2022-10-06T06:18:24.342Z,19.43
2022-10-06T06:21:03.710Z,19.50
2022-10-06T06:23:34.906Z,19.54
2022-10-06T06:26:07.618Z,19.56
2022-10-06T06:28:40.729Z,19.62
2022-10-06T06:31:19.751Z,19.65
2022-10-06T06:33:56.219Z,19.67
2022-10-06T06:36:29.462Z,19.61
2022-10-06T06:38:59.363Z,19.59
2022-10-06T06:41:32.369Z,19.66
2022-10-06T06:44:12.048Z,19.71
2022-10-06T06:46:53.899Z,19.63
2022-10-06T06:49:22.828Z,19.68
2022-10-06T06:51:56.380Z,19.67
2022-10-06T06:54:28.228Z,19.74
2022-10-06T06:57:02.593Z,19.73
2022-10-06T06:59:34.648Z,19.77
2022-10-06T07:02:03.622Z,19.78
2022-10-06T07:04:37.669Z,19.84
2022-10-06T07:07:08.141Z,19.85
2022-10-06T07:09:37.693Z,19.84
2022-10-06T07:12:11.737Z,19.88
2022-10-06T07:15:04.151Z,19.87
2022-10-06T07:17:56.865Z,19.83
2022-10-06T07:20:43.302Z,19.91
2022-10-06T07:23:36.043Z,19.96
2022-10-06T07:26:06.574Z,19.96
2022-10-06T07:28:35.082Z,20.06
2022-10-06T07:31:10.475Z,20.17
2022-10-06T07:33:59.360Z,20.27
2022-10-06T07:36:32.554Z,20.35
2022-10-06T07:39:00.402Z,20.39
2022-10-06T07:41:35.666Z,20.47
2022-10-06T07:44:08.075Z,20.53
2022-10-06T07:46:37.803Z,20.64
2022-10-06T07:49:17.800Z,20.79
2022-10-06T07:51:49.965Z,20.81
2022-10-06T07:54:20.342Z,20.89
2022-10-06T07:57:05.255Z,20.89
2022-10-06T07:59:35.098Z,20.93
2022-10-06T08:02:02.796Z,20.92
2022-10-06T08:04:30.692Z,20.94
2022-10-06T08:06:58.724Z,21.03
2022-10-06T08:09:26.571Z,21.05
2022-10-06T08:11:54.537Z,21.05
2022-10-06T08:14:24.401Z,21.06
2022-10-06T08:16:53.265Z,21.15
2022-10-06T08:19:21.937Z,21.17
2022-10-06T08:21:49.357Z,21.25
2022-10-06T08:24:18.217Z,21.26
2022-10-06T08:26:48.887Z,21.34
2022-10-06T08:29:16.686Z,21.43
2022-10-06T08:31:49.612Z,21.48
2022-10-06T08:34:17.344Z,21.53
2022-10-06T08:36:56.973Z,21.54
2022-10-06T08:39:33.185Z,21.43
2022-10-06T08:42:00.843Z,21.47
2022-10-06T08:44:39.147Z,21.52
2022-10-06T08:47:15.202Z,21.56
2022-10-06T08:49:57.465Z,21.58
2022-10-06T08:52:47.378Z,21.61
2022-10-06T08:55:31.025Z,21.67
2022-10-06T08:58:16.920Z,21.89
2022-10-06T09:00:45.519Z,22.05
2022-10-06T09:03:24.740Z,22.17
2022-10-06T09:05:55.801Z,22.31
2022-10-06T09:08:45.456Z,22.39
2022-10-06T09:11:43.629Z,22.41
2022-10-06T09:14:44.541Z,22.39
2022-10-06T09:17:34.424Z,22.39
2022-10-06T09:21:01.847Z,22.43
2022-10-06T09:24:07.639Z,22.41
2022-10-06T09:26:35.026Z,22.36
2022-10-06T09:29:03.366Z,22.44
2022-10-06T09:31:51.362Z,22.45
2022-10-06T09:34:18.974Z,22.57
2022-10-06T09:37:03.654Z,22.59
2022-10-06T09:39:37.138Z,22.66
2022-10-06T09:42:07.800Z,22.74
2022-10-06T09:44:51.182Z,22.88
2022-10-06T09:47:33.437Z,22.99
2022-10-06T09:50:12.581Z,23.25
2022-10-06T09:53:01.702Z,23.43
2022-10-06T09:55:38.957Z,23.39
2022-10-06T09:58:24.644Z,23.44
2022-10-06T10:00:58.776Z,23.46
2022-10-06T10:03:41.935Z,23.52
2022-10-06T10:06:32.076Z,23.48
2022-10-06T10:09:22.346Z,23.41
2022-10-06T10:12:33.091Z,23.41
2022-10-06T10:15:03.845Z,23.50
2022-10-06T10:17:45.313Z,23.54
2022-10-06T10:20:34.620Z,23.68
2022-10-06T10:23:19.189Z,23.66
2022-10-06T10:25:49.681Z,23.82
2022-10-06T10:28:39.752Z,24.00
2022-10-06T10:31:21.592Z,23.88
2022-10-06T10:34:12.545Z,23.92
2022-10-06T10:36:56.619Z,23.73
2022-10-06T10:39:36.117Z,23.81
2022-10-06T10:42:15.143Z,23.79
2022-10-06T10:44:56.753Z,23.77
2022-10-06T10:47:32.944Z,23.86
2022-10-06T10:50:08.575Z,23.86
2022-10-06T10:52:42.162Z,24.02
2022-10-06T10:55:23.547Z,24.06
2022-10-06T10:57:54.569Z,24.20
2022-10-06T11:00:26.326Z,24.26
2022-10-06T11:03:01.667Z,24.18
2022-10-06T11:06:00.721Z,24.07
2022-10-06T11:08:54.166Z,24.13
2022-10-06T11:11:30.113Z,24.22
2022-10-06T11:14:02.363Z,24.26
2022-10-06T11:17:25.278Z,24.37
2022-10-06T11:20:09.001Z,24.32
2022-10-06T11:22:54.847Z,24.35
2022-10-06T11:25:29.100Z,24.45
2022-10-06T11:28:21.678Z,24.45
2022-10-06T11:31:07.514Z,24.53
2022-10-06T11:33:47.261Z,24.40
2022-10-06T11:36:35.303Z,24.47
2022-10-06T11:39:35.199Z,24.65
2022-10-06T11:42:26.138Z,24.66
2022-10-06T11:45:14.459Z,24.71
2022-10-06T11:48:11.083Z,24.69
2022-10-06T11:50:42.528Z,24.67
2022-10-06T11:53:41.451Z,24.71
2022-10-06T11:56:17.906Z,24.69
2022-10-06T11:58:51.705Z,24.65
2022-10-06T12:01:31.707Z,24.60
2022-10-06T12:04:08.563Z,24.54
2022-10-06T12:06:57.796Z,24.67
2022-10-06T12:09:34.192Z,24.71
2022-10-06T12:19:20.783Z,24.83
2022-10-06T12:22:01.484Z,24.89
2022-10-06T12:24:42.189Z,24.89
2022-10-06T12:27:23.404Z,24.92
2022-10-06T12:30:16.631Z,24.95
2022-10-06T12:33:02.818Z,24.89
2022-10-06T12:35:47.896Z,24.97
2022-10-06T12:38:41.429Z,24.93
2022-10-06T12:41:15.165Z,24.95
2022-10-06T12:44:10.569Z,24.93
2022-10-06T12:46:43.984Z,24.90
2022-10-06T12:49:35.920Z,24.91
2022-10-06T12:52:22.825Z,24.93
2022-10-06T12:55:34.323Z,24.92
2022-10-06T12:58:03.434Z,24.88
2022-10-06T13:00:43.158Z,24.88
2022-10-06T13:03:30.510Z,24.70
2022-10-06T13:06:01.531Z,24.80
2022-10-06T13:08:30.831Z,24.80
2022-10-06T13:11:24.169Z,24.65
2022-10-06T13:13:55.031Z,24.72
2022-10-06T13:16:29.238Z,24.77
2022-10-06T13:19:01.909Z,24.73
2022-10-06T13:21:34.505Z,24.70
2022-10-06T13:24:03.137Z,24.71
2022-10-06T13:26:35.655Z,24.70
2022-10-06T13:29:33.533Z,24.78
2022-10-06T13:32:08.250Z,24.87
2022-10-06T13:34:54.029Z,24.89
2022-10-06T13:37:21.353Z,24.90
2022-10-06T13:39:50.295Z,24.82
2022-10-06T13:42:28.104Z,24.70
2022-10-06T13:45:06.287Z,24.70
2022-10-06T13:47:39.821Z,24.63
2022-10-06T13:50:19.472Z,24.61
2022-10-06T13:52:49.071Z,24.52
2022-10-06T13:55:31.726Z,24.58
2022-10-06T13:58:26.512Z,24.53
2022-10-06T14:00:57.098Z,24.65
2022-10-06T14:03:39.348Z,24.59
2022-10-06T14:06:22.628Z,24.62
2022-10-06T14:08:54.829Z,24.60
2022-10-06T14:11:29.712Z,24.61
2022-10-06T14:14:02.382Z,24.64
2022-10-06T14:16:31.365Z,24.60
2022-10-06T14:19:05.910Z,24.69
2022-10-06T14:21:40.147Z,24.54
2022-10-06T14:24:17.271Z,24.55
2022-10-06T14:26:47.198Z,24.50
2022-10-06T14:29:14.712Z,24.52
2022-10-06T14:31:44.223Z,24.51
2022-10-06T14:34:22.453Z,24.48
2022-10-06T14:36:52.032Z,24.47
2022-10-06T14:39:23.574Z,24.43
2022-10-06T14:41:51.150Z,24.47
2022-10-06T14:44:19.401Z,24.47
2022-10-06T14:46:53.869Z,24.55
2022-10-06T14:49:22.436Z,24.45
2022-10-06T14:51:51.120Z,24.47
2022-10-06T14:54:19.566Z,24.45
2022-10-06T14:56:47.879Z,24.47
2022-10-06T14:59:18.582Z,24.42
2022-10-06T15:01:48.180Z,24.47
2022-10-06T15:04:31.676Z,24.59
2022-10-06T15:07:17.856Z,24.53
2022-10-06T15:09:46.798Z,24.50
2022-10-06T15:12:15.543Z,24.48
2022-10-06T15:14:44.173Z,24.41
2022-10-06T15:17:12.654Z,24.52
2022-10-06T15:19:48.731Z,24.34
2022-10-06T15:22:16.804Z,24.40
2022-10-06T15:24:49.003Z,24.48
2022-10-06T15:27:36.780Z,24.48
2022-10-06T15:30:06.090Z,24.45
2022-10-06T15:32:38.084Z,24.31
2022-10-06T15:35:07.338Z,24.35
2022-10-06T15:37:43.148Z,24.24
2022-10-06T15:40:12.949Z,24.25
2022-10-06T15:42:51.198Z,24.38
2022-10-06T15:45:28.256Z,24.31
2022-10-06T15:47:56.659Z,24.38
2022-10-06T15:50:24.542Z,24.47
2022-10-06T15:52:52.153Z,24.50
2022-10-06T15:55:20.687Z,24.40
2022-10-06T15:57:49.294Z,24.46
2022-10-06T16:00:16.989Z,24.43
2022-10-06T16:02:45.331Z,24.35
2022-10-06T16:05:13.561Z,24.43
2022-10-06T16:07:41.861Z,24.50
2022-10-06T16:10:09.652Z,24.42
2022-10-06T16:12:37.644Z,24.50
2022-10-06T16:15:06.194Z,24.41
2022-10-06T16:17:34.309Z,24.41
2022-10-06T16:20:10.387Z,24.45
2022-10-06T16:22:38.486Z,24.38
2022-10-06T16:25:09.922Z,24.27
2022-10-06T16:27:42.473Z,24.20
2022-10-06T16:30:10.769Z,24.13
2022-10-06T16:32:47.659Z,24.06
2022-10-06T16:35:18.337Z,23.95
2022-10-06T16:37:50.184Z,23.99
2022-10-06T16:40:18.194Z,23.82
2022-10-06T16:42:46.187Z,23.89
2022-10-06T16:45:16.721Z,23.75
2022-10-06T16:47:44.661Z,23.66
2022-10-06T16:50:12.517Z,23.68
2022-10-06T16:52:40.516Z,23.58
2022-10-06T16:55:08.469Z,23.51
2022-10-06T16:57:35.816Z,23.44
2022-10-06T17:00:08.559Z,23.45
2022-10-06T17:02:36.961Z,23.48
2022-10-06T17:05:05.340Z,23.50
2022-10-06T17:07:37.192Z,23.44
2022-10-06T17:10:21.375Z,23.46
2022-10-06T17:12:49.199Z,23.37
2022-10-06T17:15:17.040Z,23.39
2022-10-06T17:17:44.516Z,23.30
2022-10-06T17:20:12.092Z,23.37
2022-10-06T17:22:39.596Z,23.38
2022-10-06T17:25:07.726Z,23.36
2022-10-06T17:27:39.593Z,23.36
2022-10-06T17:30:10.168Z,23.31
2022-10-06T17:32:38.642Z,23.30
2022-10-06T17:35:08.100Z,23.26
2022-10-06T17:37:35.497Z,23.19
2022-10-06T17:40:03.569Z,23.23
2022-10-06T17:42:37.852Z,23.22
2022-10-06T17:45:07.719Z,23.27
2022-10-06T17:47:35.021Z,23.25
2022-10-06T17:50:02.667Z,23.30
2022-10-06T17:52:30.700Z,23.29
2022-10-06T17:54:58.463Z,23.19
2022-10-06T17:57:25.873Z,23.18
2022-10-06T17:59:53.108Z,23.12
2022-10-06T18:02:20.583Z,23.11
2022-10-06T18:04:50.570Z,23.03
2022-10-06T18:07:18.428Z,23.03
2022-10-06T18:10:12.313Z,23.02
2022-10-06T18:12:40.309Z,23.04
2022-10-06T18:15:16.935Z,23.03
2022-10-06T18:17:44.403Z,23.04
2022-10-06T18:20:12.519Z,22.97
2022-10-06T18:22:40.493Z,22.99
2022-10-06T18:25:10.173Z,23.02
2022-10-06T18:27:43.487Z,23.01
2022-10-06T18:30:14.205Z,23.03
2022-10-06T18:38:20.553Z,23.01
2022-10-06T18:41:03.695Z,23.04
2022-10-06T18:43:31.490Z,23.08
2022-10-06T18:46:28.449Z,23.06
2022-10-06T18:49:00.886Z,23.01
2022-10-06T18:51:32.249Z,22.98
2022-10-06T18:54:03.086Z,22.95
2022-10-06T18:56:37.774Z,22.93
2022-10-06T18:59:13.360Z,22.97
2022-10-06T19:01:43.279Z,22.95
2022-10-06T19:04:14.415Z,22.98
2022-10-06T19:06:46.415Z,22.96
2022-10-06T19:09:19.333Z,22.93
2022-10-06T19:12:12.113Z,22.97
2022-10-06T19:14:49.665Z,22.98
2022-10-06T19:17:25.848Z,22.96
2022-10-06T19:19:57.289Z,22.96
2022-10-06T19:22:25.469Z,22.98
2022-10-06T19:24:56.510Z,22.97
2022-10-06T19:27:29.467Z,22.98
2022-10-06T19:29:57.257Z,22.96
2022-10-06T19:32:29.301Z,22.97
2022-10-06T19:34:59.138Z,22.96
2022-10-06T19:37:28.951Z,22.90
2022-10-06T19:40:00.795Z,22.89
2022-10-06T19:43:11.499Z,22.89
2022-10-06T19:45:44.533Z,22.93
2022-10-06T19:48:17.932Z,22.90
2022-10-06T19:50:54.729Z,22.90
2022-10-06T19:53:27.017Z,22.89
2022-10-06T19:56:05.546Z,22.90
2022-10-06T19:58:48.421Z,22.89
2022-10-06T20:01:22.087Z,22.90
2022-10-06T20:03:54.325Z,22.90
2022-10-06T20:06:26.621Z,22.90
2022-10-06T20:09:07.501Z,22.90
2022-10-06T20:11:48.273Z,22.90
2022-10-06T20:14:23.405Z,22.89
2022-10-06T20:16:56.031Z,22.92
2022-10-06T20:19:25.760Z,22.89
2022-10-06T20:21:54.465Z,22.89
2022-10-06T20:24:27.618Z,22.86
2022-10-06T20:26:55.291Z,22.87
2022-10-06T20:29:28.929Z,22.87
2022-10-06T20:32:00.389Z,22.84
2022-10-06T20:34:37.864Z,22.87
2022-10-06T20:37:06.461Z,22.82
2022-10-06T20:39:54.076Z,22.79
2022-10-06T20:42:26.351Z,22.71
2022-10-06T20:44:55.239Z,22.68
2022-10-06T20:47:23.819Z,22.70
2022-10-06T20:49:55.715Z,22.64
2022-10-06T20:52:24.678Z,22.66
2022-10-06T20:54:53.077Z,22.54
2022-10-06T20:57:24.390Z,22.52
2022-10-06T20:59:53.082Z,22.45
2022-10-06T21:02:22.196Z,22.47
2022-10-06T21:04:50.066Z,22.48
2022-10-06T21:07:18.818Z,22.51
2022-10-06T21:09:54.465Z,22.56
2022-10-06T21:12:22.056Z,22.57
2022-10-06T21:14:51.014Z,22.53
2022-10-06T21:17:19.493Z,22.48
2022-10-06T21:19:47.389Z,22.48
2022-10-06T21:22:17.861Z,22.33
2022-10-06T21:24:47.712Z,22.31
2022-10-06T21:27:17.337Z,22.37
2022-10-06T21:29:48.991Z,22.33
2022-10-06T21:32:28.273Z,22.30
2022-10-06T21:34:57.314Z,22.22
2022-10-06T21:37:24.994Z,22.15
2022-10-06T21:39:53.055Z,22.20
2022-10-06T21:42:20.795Z,22.20
2022-10-06T21:44:49.200Z,22.19
2022-10-06T21:47:23.536Z,22.04
2022-10-06T21:49:51.299Z,22.08
2022-10-06T21:52:22.101Z,22.09
2022-10-06T21:54:49.357Z,22.07
2022-10-06T21:57:18.723Z,21.91
2022-10-06T21:59:46.115Z,21.91
2022-10-06T22:02:13.899Z,21.90
2022-10-06T22:04:42.142Z,21.91
2022-10-06T22:07:10.225Z,21.92
2022-10-06T22:09:37.865Z,21.91
2022-10-06T22:12:05.616Z,21.93
2022-10-06T22:14:33.180Z,21.91
2022-10-06T22:17:00.589Z,21.91
2022-10-06T22:19:28.379Z,21.91
2022-10-06T22:21:56.406Z,21.82
2022-10-06T22:24:24.044Z,21.79
2022-10-06T22:26:51.738Z,21.72
2022-10-06T22:29:21.618Z,21.74
2022-10-06T22:31:49.445Z,21.70
2022-10-06T22:34:21.560Z,21.63
2022-10-06T22:36:54.895Z,21.62
2022-10-06T22:39:22.269Z,21.57
2022-10-06T22:41:50.920Z,21.43
2022-10-06T22:44:18.226Z,21.47
2022-10-06T22:46:48.874Z,21.46
2022-10-06T22:49:16.380Z,21.41
2022-10-06T22:51:44.035Z,21.40
2022-10-06T22:54:18.723Z,21.44
2022-10-06T22:56:46.643Z,21.44
2022-10-06T22:59:14.054Z,21.43
2022-10-06T23:01:42.227Z,21.41
2022-10-06T23:04:09.839Z,21.36
2022-10-06T23:06:44.678Z,21.39
2022-10-06T23:09:12.783Z,21.31
2022-10-06T23:11:40.485Z,21.27
2022-10-06T23:14:07.846Z,21.22
2022-10-06T23:16:35.796Z,21.22
2022-10-06T23:19:03.393Z,21.21
2022-10-06T23:21:32.982Z,21.22
2022-10-06T23:24:01.746Z,21.13
2022-10-06T23:26:32.929Z,21.23
2022-10-06T23:29:02.019Z,21.21
2022-10-06T23:31:30.655Z,21.14
2022-10-06T23:33:59.188Z,21.19
2022-10-06T23:36:40.585Z,21.16
2022-10-06T23:39:08.086Z,21.07
2022-10-06T23:41:36.264Z,21.11
2022-10-06T23:44:03.921Z,20.97
2022-10-06T23:46:31.906Z,21.00
2022-10-06T23:49:00.322Z,21.04
2022-10-06T23:51:28.448Z,21.01
2022-10-06T23:53:56.098Z,21.05
2022-10-06T23:56:23.867Z,21.01
2022-10-06T23:58:54.730Z,21.05
